sensor_id;sensor_type;location;lat;lon;timestamp;P1;durP1;ratioP1;P2;durP2;ratioP2
24787;SDS011;12883;52.662;5.196;2023-05-07T00:01:25;41.42;;;41.22;;
24787;SDS011;12883;52.662;5.196;2023-05-07T00:03:50;39.63;;;39.42;;
24787;SDS011;12883;52.662;5.196;2023-05-07T00:06:16;36.72;;;36.53;;
24787;SDS011;12883;52.662;5.196;2023-05-07T00:08:42;36.05;;;35.85;;
24787;SDS011;12883;52.662;5.196;2023-05-07T00:11:07;36.22;;;36.03;;
24787;SDS011;12883;52.662;5.196;2023-05-07T00:13:32;35.95;;;35.85;;
24787;SDS011;12883;52.662;5.196;2023-05-07T00:16:00;35.47;;;35.38;;
24787;SDS011;12883;52.662;5.196;2023-05-07T00:18:29;35.47;;;35.35;;
24787;SDS011;12883;52.662;5.196;2023-05-07T00:20:54;35.00;;;34.90;;
24787;SDS011;12883;52.662;5.196;2023-05-07T00:23:21;36.80;;;36.60;;
24787;SDS011;12883;52.662;5.196;2023-05-07T00:25:46;34.92;;;34.80;;
24787;SDS011;12883;52.662;5.196;2023-05-07T00:28:11;37.08;;;36.92;;
24787;SDS011;12883;52.662;5.196;2023-05-07T00:30:37;37.85;;;37.65;;
24787;SDS011;12883;52.662;5.196;2023-05-07T00:33:02;36.15;;;36.05;;
24787;SDS011;12883;52.662;5.196;2023-05-07T00:35:28;36.67;;;36.47;;
24787;SDS011;12883;52.662;5.196;2023-05-07T00:37:54;37.53;;;37.33;;
24787;SDS011;12883;52.662;5.196;2023-05-07T00:40:20;39.17;;;38.97;;
24787;SDS011;12883;52.662;5.196;2023-05-07T00:42:45;40.50;;;40.30;;
24787;SDS011;12883;52.662;5.196;2023-05-07T00:45:12;40.58;;;40.38;;
24787;SDS011;12883;52.662;5.196;2023-05-07T00:47:38;41.13;;;40.92;;
24787;SDS011;12883;52.662;5.196;2023-05-07T00:50:04;39.72;;;39.53;;
24787;SDS011;12883;52.662;5.196;2023-05-07T00:52:30;41.28;;;41.08;;
24787;SDS011;12883;52.662;5.196;2023-05-07T00:54:56;44.30;;;44.10;;
24787;SDS011;12883;52.662;5.196;2023-05-07T00:57:21;41.80;;;41.60;;
24787;SDS011;12883;52.662;5.196;2023-05-07T00:59:49;43.50;;;43.30;;
24787;SDS011;12883;52.662;5.196;2023-05-07T01:02:16;40.92;;;40.72;;
24787;SDS011;12883;52.662;5.196;2023-05-07T01:04:41;38.72;;;38.53;;
24787;SDS011;12883;52.662;5.196;2023-05-07T01:07:07;37.70;;;37.55;;
24787;SDS011;12883;52.662;5.196;2023-05-07T01:09:33;37.20;;;37.00;;
24787;SDS011;12883;52.662;5.196;2023-05-07T01:12:01;35.75;;;35.55;;
24787;SDS011;12883;52.662;5.196;2023-05-07T01:14:26;33.95;;;33.85;;
24787;SDS011;12883;52.662;5.196;2023-05-07T01:16:52;33.40;;;33.30;;
24787;SDS011;12883;52.662;5.196;2023-05-07T01:19:19;31.42;;;31.33;;
24787;SDS011;12883;52.662;5.196;2023-05-07T01:21:48;29.42;;;29.33;;
24787;SDS011;12883;52.662;5.196;2023-05-07T01:24:14;28.33;;;28.23;;
24787;SDS011;12883;52.662;5.196;2023-05-07T01:26:41;26.90;;;26.80;;
24787;SDS011;12883;52.662;5.196;2023-05-07T01:29:07;26.67;;;26.58;;
24787;SDS011;12883;52.662;5.196;2023-05-07T01:31:33;27.00;;;26.90;;
24787;SDS011;12883;52.662;5.196;2023-05-07T01:33:59;26.73;;;26.63;;
24787;SDS011;12883;52.662;5.196;2023-05-07T01:36:27;26.58;;;26.48;;
24787;SDS011;12883;52.662;5.196;2023-05-07T01:38:55;26.13;;;26.02;;
24787;SDS011;12883;52.662;5.196;2023-05-07T01:41:22;23.65;;;23.55;;
24787;SDS011;12883;52.662;5.196;2023-05-07T01:43:48;23.30;;;23.20;;
24787;SDS011;12883;52.662;5.196;2023-05-07T01:46:16;23.77;;;23.67;;
24787;SDS011;12883;52.662;5.196;2023-05-07T01:48:42;23.15;;;23.05;;
24787;SDS011;12883;52.662;5.196;2023-05-07T01:51:10;21.80;;;21.70;;
24787;SDS011;12883;52.662;5.196;2023-05-07T01:53:36;23.23;;;23.13;;
24787;SDS011;12883;52.662;5.196;2023-05-07T01:56:02;22.77;;;22.67;;
24787;SDS011;12883;52.662;5.196;2023-05-07T01:58:28;20.80;;;20.70;;
24787;SDS011;12883;52.662;5.196;2023-05-07T02:00:53;21.60;;;21.50;;
24787;SDS011;12883;52.662;5.196;2023-05-07T02:03:19;20.65;;;20.55;;
24787;SDS011;12883;52.662;5.196;2023-05-07T02:05:44;20.73;;;20.63;;
24787;SDS011;12883;52.662;5.196;2023-05-07T02:08:09;19.55;;;19.45;;
24787;SDS011;12883;52.662;5.196;2023-05-07T02:10:35;20.10;;;20.00;;
24787;SDS011;12883;52.662;5.196;2023-05-07T02:13:01;19.10;;;19.00;;
24787;SDS011;12883;52.662;5.196;2023-05-07T02:15:27;20.13;;;20.03;;
24787;SDS011;12883;52.662;5.196;2023-05-07T02:18:02;17.92;;;17.92;;
24787;SDS011;12883;52.662;5.196;2023-05-07T02:20:29;17.75;;;17.67;;
24787;SDS011;12883;52.662;5.196;2023-05-07T02:22:55;16.90;;;16.90;;
24787;SDS011;12883;52.662;5.196;2023-05-07T02:25:20;16.98;;;16.98;;
24787;SDS011;12883;52.662;5.196;2023-05-07T02:27:45;16.65;;;16.65;;
24787;SDS011;12883;52.662;5.196;2023-05-07T02:30:11;18.38;;;18.38;;
24787;SDS011;12883;52.662;5.196;2023-05-07T02:32:36;19.15;;;19.05;;
24787;SDS011;12883;52.662;5.196;2023-05-07T02:35:02;18.38;;;18.33;;
24787;SDS011;12883;52.662;5.196;2023-05-07T02:37:27;19.30;;;19.20;;
24787;SDS011;12883;52.662;5.196;2023-05-07T02:39:53;18.10;;;18.00;;
24787;SDS011;12883;52.662;5.196;2023-05-07T02:42:18;18.73;;;18.63;;
24787;SDS011;12883;52.662;5.196;2023-05-07T02:44:43;18.90;;;18.80;;
24787;SDS011;12883;52.662;5.196;2023-05-07T02:47:09;18.43;;;18.33;;
24787;SDS011;12883;52.662;5.196;2023-05-07T02:49:35;17.00;;;16.97;;
24787;SDS011;12883;52.662;5.196;2023-05-07T02:52:00;17.10;;;17.10;;
24787;SDS011;12883;52.662;5.196;2023-05-07T02:54:26;17.27;;;17.23;;
24787;SDS011;12883;52.662;5.196;2023-05-07T02:56:51;17.23;;;17.15;;
24787;SDS011;12883;52.662;5.196;2023-05-07T02:59:16;16.13;;;16.13;;
24787;SDS011;12883;52.662;5.196;2023-05-07T03:01:42;16.10;;;16.10;;
24787;SDS011;12883;52.662;5.196;2023-05-07T03:04:09;16.33;;;16.33;;
24787;SDS011;12883;52.662;5.196;2023-05-07T03:06:35;16.23;;;16.23;;
24787;SDS011;12883;52.662;5.196;2023-05-07T03:09:01;15.15;;;15.15;;
24787;SDS011;12883;52.662;5.196;2023-05-07T03:11:26;14.93;;;14.93;;
24787;SDS011;12883;52.662;5.196;2023-05-07T03:13:52;15.35;;;15.35;;
24787;SDS011;12883;52.662;5.196;2023-05-07T03:16:17;16.13;;;16.13;;
24787;SDS011;12883;52.662;5.196;2023-05-07T03:18:42;15.85;;;15.85;;
24787;SDS011;12883;52.662;5.196;2023-05-07T03:21:08;16.98;;;16.92;;
24787;SDS011;12883;52.662;5.196;2023-05-07T03:23:33;15.50;;;15.50;;
24787;SDS011;12883;52.662;5.196;2023-05-07T03:25:59;18.30;;;18.20;;
24787;SDS011;12883;52.662;5.196;2023-05-07T03:28:24;19.13;;;19.02;;
24787;SDS011;12883;52.662;5.196;2023-05-07T03:30:49;19.45;;;19.35;;
24787;SDS011;12883;52.662;5.196;2023-05-07T03:33:15;20.38;;;20.27;;
24787;SDS011;12883;52.662;5.196;2023-05-07T03:35:41;21.23;;;21.13;;
24787;SDS011;12883;52.662;5.196;2023-05-07T03:38:07;21.48;;;21.38;;
24787;SDS011;12883;52.662;5.196;2023-05-07T03:40:32;19.90;;;19.80;;
24787;SDS011;12883;52.662;5.196;2023-05-07T03:42:59;20.00;;;19.90;;
24787;SDS011;12883;52.662;5.196;2023-05-07T03:45:25;18.87;;;18.77;;
24787;SDS011;12883;52.662;5.196;2023-05-07T03:47:50;19.52;;;19.42;;
24787;SDS011;12883;52.662;5.196;2023-05-07T03:50:16;19.13;;;19.03;;
24787;SDS011;12883;52.662;5.196;2023-05-07T03:52:41;20.45;;;20.35;;
24787;SDS011;12883;52.662;5.196;2023-05-07T03:55:07;19.60;;;19.60;;
24787;SDS011;12883;52.662;5.196;2023-05-07T03:57:32;20.08;;;19.98;;
24787;SDS011;12883;52.662;5.196;2023-05-07T03:59:58;20.35;;;20.25;;
24787;SDS011;12883;52.662;5.196;2023-05-07T04:02:23;20.88;;;20.77;;
24787;SDS011;12883;52.662;5.196;2023-05-07T04:04:48;22.02;;;21.92;;
24787;SDS011;12883;52.662;5.196;2023-05-07T04:07:14;21.85;;;21.75;;
24787;SDS011;12883;52.662;5.196;2023-05-07T04:09:40;21.33;;;21.23;;
24787;SDS011;12883;52.662;5.196;2023-05-07T04:12:05;20.73;;;20.63;;
24787;SDS011;12883;52.662;5.196;2023-05-07T04:14:30;20.92;;;20.83;;
24787;SDS011;12883;52.662;5.196;2023-05-07T04:16:57;22.15;;;22.05;;
24787;SDS011;12883;52.662;5.196;2023-05-07T04:19:23;22.08;;;21.98;;
24787;SDS011;12883;52.662;5.196;2023-05-07T04:21:48;23.10;;;23.00;;
24787;SDS011;12883;52.662;5.196;2023-05-07T04:24:14;24.27;;;24.17;;
24787;SDS011;12883;52.662;5.196;2023-05-07T04:26:39;25.92;;;25.83;;
24787;SDS011;12883;52.662;5.196;2023-05-07T04:29:05;26.65;;;26.55;;
24787;SDS011;12883;52.662;5.196;2023-05-07T04:31:30;31.00;;;30.90;;
24787;SDS011;12883;52.662;5.196;2023-05-07T04:33:56;30.92;;;30.83;;
24787;SDS011;12883;52.662;5.196;2023-05-07T04:36:22;32.45;;;32.35;;
24787;SDS011;12883;52.662;5.196;2023-05-07T04:38:47;36.13;;;36.03;;
24787;SDS011;12883;52.662;5.196;2023-05-07T04:41:13;35.28;;;35.17;;
24787;SDS011;12883;52.662;5.196;2023-05-07T04:43:38;34.85;;;34.75;;
24787;SDS011;12883;52.662;5.196;2023-05-07T04:46:04;36.20;;;36.08;;
24787;SDS011;12883;52.662;5.196;2023-05-07T04:48:29;37.10;;;36.95;;
24787;SDS011;12883;52.662;5.196;2023-05-07T04:50:55;38.90;;;38.80;;
24787;SDS011;12883;52.662;5.196;2023-05-07T04:53:20;38.47;;;38.38;;
24787;SDS011;12883;52.662;5.196;2023-05-07T04:55:46;40.85;;;40.65;;
24787;SDS011;12883;52.662;5.196;2023-05-07T04:58:12;43.40;;;43.20;;
24787;SDS011;12883;52.662;5.196;2023-05-07T05:00:37;43.67;;;43.47;;
24787;SDS011;12883;52.662;5.196;2023-05-07T05:03:04;44.97;;;44.78;;
24787;SDS011;12883;52.662;5.196;2023-05-07T05:05:30;45.00;;;44.80;;
24787;SDS011;12883;52.662;5.196;2023-05-07T05:07:55;45.78;;;45.58;;
24787;SDS011;12883;52.662;5.196;2023-05-07T05:10:21;46.92;;;46.72;;
24787;SDS011;12883;52.662;5.196;2023-05-07T05:12:47;47.92;;;47.72;;
24787;SDS011;12883;52.662;5.196;2023-05-07T05:15:12;46.55;;;46.35;;
24787;SDS011;12883;52.662;5.196;2023-05-07T05:17:38;48.08;;;47.88;;
24787;SDS011;12883;52.662;5.196;2023-05-07T05:20:04;46.53;;;46.33;;
24787;SDS011;12883;52.662;5.196;2023-05-07T05:22:30;48.95;;;48.75;;
24787;SDS011;12883;52.662;5.196;2023-05-07T05:24:56;47.17;;;46.97;;
24787;SDS011;12883;52.662;5.196;2023-05-07T05:27:22;47.90;;;47.70;;
24787;SDS011;12883;52.662;5.196;2023-05-07T05:29:47;48.70;;;48.50;;
24787;SDS011;12883;52.662;5.196;2023-05-07T05:32:13;46.17;;;45.97;;
24787;SDS011;12883;52.662;5.196;2023-05-07T05:34:38;46.58;;;46.38;;
24787;SDS011;12883;52.662;5.196;2023-05-07T05:37:03;46.73;;;46.53;;
24787;SDS011;12883;52.662;5.196;2023-05-07T05:39:29;47.50;;;47.30;;
24787;SDS011;12883;52.662;5.196;2023-05-07T05:41:54;44.85;;;44.65;;
24787;SDS011;12883;52.662;5.196;2023-05-07T05:44:19;44.83;;;44.63;;
24787;SDS011;12883;52.662;5.196;2023-05-07T05:46:45;44.00;;;43.80;;
24787;SDS011;12883;52.662;5.196;2023-05-07T05:49:10;43.50;;;43.30;;
24787;SDS011;12883;52.662;5.196;2023-05-07T05:51:35;43.28;;;43.08;;
24787;SDS011;12883;52.662;5.196;2023-05-07T05:54:01;43.03;;;42.83;;
24787;SDS011;12883;52.662;5.196;2023-05-07T05:56:26;43.20;;;43.00;;
24787;SDS011;12883;52.662;5.196;2023-05-07T05:58:52;41.80;;;41.60;;
24787;SDS011;12883;52.662;5.196;2023-05-07T06:01:17;40.08;;;39.88;;
24787;SDS011;12883;52.662;5.196;2023-05-07T06:03:43;38.15;;;37.95;;
24787;SDS011;12883;52.662;5.196;2023-05-07T06:06:09;37.65;;;37.45;;
24787;SDS011;12883;52.662;5.196;2023-05-07T06:08:34;35.35;;;35.25;;
24787;SDS011;12883;52.662;5.196;2023-05-07T06:11:00;35.17;;;35.08;;
24787;SDS011;12883;52.662;5.196;2023-05-07T06:13:26;35.97;;;35.88;;
24787;SDS011;12883;52.662;5.196;2023-05-07T06:15:51;35.13;;;34.92;;
24787;SDS011;12883;52.662;5.196;2023-05-07T06:18:16;35.20;;;35.10;;
24787;SDS011;12883;52.662;5.196;2023-05-07T06:20:42;33.22;;;33.13;;
24787;SDS011;12883;52.662;5.196;2023-05-07T06:23:07;34.67;;;34.58;;
24787;SDS011;12883;52.662;5.196;2023-05-07T06:25:32;33.72;;;33.63;;
24787;SDS011;12883;52.662;5.196;2023-05-07T06:27:58;35.17;;;34.97;;
24787;SDS011;12883;52.662;5.196;2023-05-07T06:30:23;34.72;;;34.63;;
24787;SDS011;12883;52.662;5.196;2023-05-07T06:32:49;33.13;;;32.95;;
24787;SDS011;12883;52.662;5.196;2023-05-07T06:35:14;31.98;;;31.88;;
24787;SDS011;12883;52.662;5.196;2023-05-07T06:37:40;33.50;;;33.40;;
24787;SDS011;12883;52.662;5.196;2023-05-07T06:40:07;32.83;;;32.72;;
24787;SDS011;12883;52.662;5.196;2023-05-07T06:42:35;33.97;;;33.83;;
24787;SDS011;12883;52.662;5.196;2023-05-07T06:45:00;34.88;;;34.78;;
24787;SDS011;12883;52.662;5.196;2023-05-07T06:47:26;31.58;;;31.48;;
24787;SDS011;12883;52.662;5.196;2023-05-07T06:49:51;31.63;;;31.52;;
24787;SDS011;12883;52.662;5.196;2023-05-07T06:52:16;32.75;;;32.65;;
24787;SDS011;12883;52.662;5.196;2023-05-07T06:54:42;33.33;;;33.13;;
24787;SDS011;12883;52.662;5.196;2023-05-07T06:57:07;33.67;;;33.58;;
24787;SDS011;12883;52.662;5.196;2023-05-07T06:59:32;33.42;;;33.33;;
24787;SDS011;12883;52.662;5.196;2023-05-07T07:01:58;34.37;;;34.27;;
24787;SDS011;12883;52.662;5.196;2023-05-07T07:04:23;34.17;;;34.08;;
24787;SDS011;12883;52.662;5.196;2023-05-07T07:06:49;33.08;;;32.97;;
24787;SDS011;12883;52.662;5.196;2023-05-07T07:09:17;34.13;;;34.03;;
24787;SDS011;12883;52.662;5.196;2023-05-07T07:11:42;34.92;;;34.72;;
24787;SDS011;12883;52.662;5.196;2023-05-07T07:14:07;33.88;;;33.78;;
24787;SDS011;12883;52.662;5.196;2023-05-07T07:16:33;33.72;;;33.63;;
24787;SDS011;12883;52.662;5.196;2023-05-07T07:18:58;34.75;;;34.55;;
24787;SDS011;12883;52.662;5.196;2023-05-07T07:21:24;33.67;;;33.58;;
24787;SDS011;12883;52.662;5.196;2023-05-07T07:23:49;33.88;;;33.78;;
24787;SDS011;12883;52.662;5.196;2023-05-07T07:26:14;36.05;;;35.92;;
24787;SDS011;12883;52.662;5.196;2023-05-07T07:28:43;33.47;;;33.38;;
24787;SDS011;12883;52.662;5.196;2023-05-07T07:31:09;34.35;;;34.15;;
24787;SDS011;12883;52.662;5.196;2023-05-07T07:33:35;33.30;;;33.20;;
24787;SDS011;12883;52.662;5.196;2023-05-07T07:36:00;34.50;;;34.33;;
24787;SDS011;12883;52.662;5.196;2023-05-07T07:38:25;33.15;;;33.05;;
24787;SDS011;12883;52.662;5.196;2023-05-07T07:40:51;32.58;;;32.47;;
24787;SDS011;12883;52.662;5.196;2023-05-07T07:43:16;33.22;;;33.13;;
24787;SDS011;12883;52.662;5.196;2023-05-07T07:45:41;32.72;;;32.63;;
24787;SDS011;12883;52.662;5.196;2023-05-07T07:48:07;31.55;;;31.45;;
24787;SDS011;12883;52.662;5.196;2023-05-07T07:50:32;33.30;;;33.20;;
24787;SDS011;12883;52.662;5.196;2023-05-07T07:52:57;32.22;;;32.13;;
24787;SDS011;12883;52.662;5.196;2023-05-07T07:55:23;32.55;;;32.45;;
24787;SDS011;12883;52.662;5.196;2023-05-07T07:57:51;32.00;;;31.90;;
24787;SDS011;12883;52.662;5.196;2023-05-07T08:00:23;33.75;;;33.65;;
24787;SDS011;12883;52.662;5.196;2023-05-07T08:02:49;31.77;;;31.67;;
24787;SDS011;12883;52.662;5.196;2023-05-07T08:05:14;31.20;;;31.10;;
24787;SDS011;12883;52.662;5.196;2023-05-07T08:07:40;31.05;;;30.95;;
24787;SDS011;12883;52.662;5.196;2023-05-07T08:10:06;29.67;;;29.58;;
24787;SDS011;12883;52.662;5.196;2023-05-07T08:12:32;30.10;;;30.00;;
24787;SDS011;12883;52.662;5.196;2023-05-07T08:14:57;29.33;;;29.23;;
24787;SDS011;12883;52.662;5.196;2023-05-07T08:17:23;28.63;;;28.52;;
24787;SDS011;12883;52.662;5.196;2023-05-07T08:19:49;29.42;;;29.33;;
24787;SDS011;12883;52.662;5.196;2023-05-07T08:22:14;30.17;;;30.08;;
24787;SDS011;12883;52.662;5.196;2023-05-07T08:24:40;27.73;;;27.63;;
24787;SDS011;12883;52.662;5.196;2023-05-07T08:27:05;28.50;;;28.40;;
24787;SDS011;12883;52.662;5.196;2023-05-07T08:29:30;28.70;;;28.60;;
24787;SDS011;12883;52.662;5.196;2023-05-07T08:31:56;27.52;;;27.42;;
24787;SDS011;12883;52.662;5.196;2023-05-07T08:34:21;28.08;;;27.98;;
24787;SDS011;12883;52.662;5.196;2023-05-07T08:36:47;29.27;;;29.17;;
24787;SDS011;12883;52.662;5.196;2023-05-07T08:39:13;27.75;;;27.65;;
24787;SDS011;12883;52.662;5.196;2023-05-07T08:41:40;28.00;;;27.90;;
24787;SDS011;12883;52.662;5.196;2023-05-07T08:44:11;28.95;;;28.85;;
24787;SDS011;12883;52.662;5.196;2023-05-07T08:46:39;28.42;;;28.33;;
24787;SDS011;12883;52.662;5.196;2023-05-07T08:49:04;27.95;;;27.85;;
24787;SDS011;12883;52.662;5.196;2023-05-07T08:51:30;29.15;;;29.05;;
24787;SDS011;12883;52.662;5.196;2023-05-07T08:53:56;26.90;;;26.80;;
24787;SDS011;12883;52.662;5.196;2023-05-07T08:56:21;27.52;;;27.42;;
24787;SDS011;12883;52.662;5.196;2023-05-07T08:58:47;28.42;;;28.33;;
24787;SDS011;12883;52.662;5.196;2023-05-07T09:01:13;26.63;;;26.52;;
24787;SDS011;12883;52.662;5.196;2023-05-07T09:03:40;27.38;;;27.27;;
24787;SDS011;12883;52.662;5.196;2023-05-07T09:06:08;27.58;;;27.48;;
24787;SDS011;12883;52.662;5.196;2023-05-07T09:08:35;26.75;;;26.65;;
24787;SDS011;12883;52.662;5.196;2023-05-07T09:11:01;27.40;;;27.30;;
24787;SDS011;12883;52.662;5.196;2023-05-07T09:13:27;28.02;;;27.92;;
24787;SDS011;12883;52.662;5.196;2023-05-07T09:15:52;28.02;;;27.92;;
24787;SDS011;12883;52.662;5.196;2023-05-07T09:18:18;28.88;;;28.77;;
24787;SDS011;12883;52.662;5.196;2023-05-07T09:20:43;28.92;;;28.83;;
24787;SDS011;12883;52.662;5.196;2023-05-07T09:23:09;29.80;;;29.70;;
24787;SDS011;12883;52.662;5.196;2023-05-07T09:25:35;28.27;;;28.17;;
24787;SDS011;12883;52.662;5.196;2023-05-07T09:28:01;29.38;;;29.27;;
24787;SDS011;12883;52.662;5.196;2023-05-07T09:30:28;29.77;;;29.67;;
24787;SDS011;12883;52.662;5.196;2023-05-07T09:32:55;28.75;;;28.65;;
24787;SDS011;12883;52.662;5.196;2023-05-07T09:35:21;28.92;;;28.83;;
24787;SDS011;12883;52.662;5.196;2023-05-07T09:37:49;30.08;;;29.98;;
24787;SDS011;12883;52.662;5.196;2023-05-07T09:40:21;29.27;;;29.17;;
24787;SDS011;12883;52.662;5.196;2023-05-07T09:42:48;29.55;;;29.45;;
24787;SDS011;12883;52.662;5.196;2023-05-07T09:45:14;28.75;;;28.65;;
24787;SDS011;12883;52.662;5.196;2023-05-07T09:47:40;28.48;;;28.38;;
24787;SDS011;12883;52.662;5.196;2023-05-07T09:50:09;30.00;;;29.90;;
24787;SDS011;12883;52.662;5.196;2023-05-07T09:52:38;27.55;;;27.45;;
24787;SDS011;12883;52.662;5.196;2023-05-07T09:55:05;28.40;;;28.30;;
24787;SDS011;12883;52.662;5.196;2023-05-07T09:57:32;28.63;;;28.52;;
24787;SDS011;12883;52.662;5.196;2023-05-07T09:59:58;28.13;;;28.02;;
24787;SDS011;12883;52.662;5.196;2023-05-07T10:02:29;29.95;;;29.85;;
24787;SDS011;12883;52.662;5.196;2023-05-07T10:04:55;29.10;;;29.00;;
24787;SDS011;12883;52.662;5.196;2023-05-07T10:07:21;28.98;;;28.88;;
24787;SDS011;12883;52.662;5.196;2023-05-07T10:09:47;29.35;;;29.25;;
24787;SDS011;12883;52.662;5.196;2023-05-07T10:12:13;28.20;;;28.10;;
24787;SDS011;12883;52.662;5.196;2023-05-07T10:14:39;27.73;;;27.63;;
24787;SDS011;12883;52.662;5.196;2023-05-07T10:17:05;26.85;;;26.75;;
24787;SDS011;12883;52.662;5.196;2023-05-07T10:19:30;27.77;;;27.67;;
24787;SDS011;12883;52.662;5.196;2023-05-07T10:21:59;27.88;;;27.77;;
24787;SDS011;12883;52.662;5.196;2023-05-07T10:24:32;29.38;;;29.27;;
24787;SDS011;12883;52.662;5.196;2023-05-07T10:26:59;29.10;;;29.00;;
24787;SDS011;12883;52.662;5.196;2023-05-07T10:34:23;29.90;;;29.80;;
24787;SDS011;12883;52.662;5.196;2023-05-07T10:36:52;28.05;;;27.95;;
24787;SDS011;12883;52.662;5.196;2023-05-07T10:39:20;28.45;;;28.35;;
24787;SDS011;12883;52.662;5.196;2023-05-07T10:41:46;28.80;;;28.70;;
24787;SDS011;12883;52.662;5.196;2023-05-07T10:44:11;29.25;;;29.15;;
24787;SDS011;12883;52.662;5.196;2023-05-07T10:47:15;28.25;;;28.15;;
24787;SDS011;12883;52.662;5.196;2023-05-07T10:54:39;27.70;;;27.60;;
24787;SDS011;12883;52.662;5.196;2023-05-07T11:00:44;28.65;;;28.55;;
24787;SDS011;12883;52.662;5.196;2023-05-07T11:05:29;28.88;;;28.77;;
24787;SDS011;12883;52.662;5.196;2023-05-07T11:10:21;29.15;;;29.05;;
24787;SDS011;12883;52.662;5.196;2023-05-07T11:15:50;28.45;;;28.35;;
24787;SDS011;12883;52.662;5.196;2023-05-07T11:18:10;29.35;;;29.25;;
24787;SDS011;12883;52.662;5.196;2023-05-07T11:20:47;28.30;;;28.20;;
24787;SDS011;12883;52.662;5.196;2023-05-07T11:28:27;29.23;;;29.13;;
24787;SDS011;12883;52.662;5.196;2023-05-07T11:30:54;29.20;;;29.10;;
24787;SDS011;12883;52.662;5.196;2023-05-07T11:33:20;28.88;;;28.77;;
24787;SDS011;12883;52.662;5.196;2023-05-07T11:35:45;30.52;;;30.42;;
24787;SDS011;12883;52.662;5.196;2023-05-07T11:38:11;27.48;;;27.38;;
24787;SDS011;12883;52.662;5.196;2023-05-07T11:40:54;29.63;;;29.52;;
24787;SDS011;12883;52.662;5.196;2023-05-07T11:43:21;29.00;;;28.90;;
24787;SDS011;12883;52.662;5.196;2023-05-07T11:45:47;27.17;;;27.08;;
24787;SDS011;12883;52.662;5.196;2023-05-07T11:48:13;29.08;;;28.98;;
24787;SDS011;12883;52.662;5.196;2023-05-07T11:53:26;27.10;;;27.00;;
24787;SDS011;12883;52.662;5.196;2023-05-07T11:55:54;27.58;;;27.48;;
24787;SDS011;12883;52.662;5.196;2023-05-07T11:58:21;28.88;;;28.77;;
24787;SDS011;12883;52.662;5.196;2023-05-07T12:00:48;28.98;;;28.88;;
24787;SDS011;12883;52.662;5.196;2023-05-07T12:03:17;29.45;;;29.35;;
24787;SDS011;12883;52.662;5.196;2023-05-07T12:05:43;30.02;;;29.92;;
24787;SDS011;12883;52.662;5.196;2023-05-07T12:08:13;29.38;;;29.27;;
24787;SDS011;12883;52.662;5.196;2023-05-07T12:10:46;29.50;;;29.40;;
24787;SDS011;12883;52.662;5.196;2023-05-07T12:13:18;28.92;;;28.83;;
24787;SDS011;12883;52.662;5.196;2023-05-07T12:15:55;29.70;;;29.60;;
24787;SDS011;12883;52.662;5.196;2023-05-07T12:18:22;28.45;;;28.35;;
24787;SDS011;12883;52.662;5.196;2023-05-07T12:20:48;28.63;;;28.52;;
24787;SDS011;12883;52.662;5.196;2023-05-07T12:23:15;28.63;;;28.52;;
24787;SDS011;12883;52.662;5.196;2023-05-07T12:25:41;27.48;;;27.38;;
24787;SDS011;12883;52.662;5.196;2023-05-07T12:28:14;27.10;;;27.00;;
24787;SDS011;12883;52.662;5.196;2023-05-07T12:30:42;26.33;;;26.23;;
24787;SDS011;12883;52.662;5.196;2023-05-07T12:33:07;26.65;;;26.55;;
24787;SDS011;12883;52.662;5.196;2023-05-07T12:35:37;26.58;;;26.48;;
24787;SDS011;12883;52.662;5.196;2023-05-07T12:38:07;26.33;;;26.23;;
24787;SDS011;12883;52.662;5.196;2023-05-07T12:40:54;24.17;;;24.08;;
24787;SDS011;12883;52.662;5.196;2023-05-07T12:43:27;25.20;;;25.10;;
24787;SDS011;12883;52.662;5.196;2023-05-07T12:46:11;24.58;;;24.48;;
24787;SDS011;12883;52.662;5.196;2023-05-07T12:48:41;24.92;;;24.83;;
24787;SDS011;12883;52.662;5.196;2023-05-07T12:51:08;25.63;;;25.52;;
24787;SDS011;12883;52.662;5.196;2023-05-07T12:53:39;25.48;;;25.38;;
24787;SDS011;12883;52.662;5.196;2023-05-07T12:56:05;25.20;;;25.10;;
24787;SDS011;12883;52.662;5.196;2023-05-07T12:58:33;25.10;;;25.00;;
24787;SDS011;12883;52.662;5.196;2023-05-07T13:01:00;26.48;;;26.38;;
24787;SDS011;12883;52.662;5.196;2023-05-07T13:03:29;24.55;;;24.45;;
24787;SDS011;12883;52.662;5.196;2023-05-07T13:06:03;25.48;;;25.38;;
24787;SDS011;12883;52.662;5.196;2023-05-07T13:08:36;25.25;;;25.15;;
24787;SDS011;12883;52.662;5.196;2023-05-07T13:11:06;23.88;;;23.77;;
24787;SDS011;12883;52.662;5.196;2023-05-07T13:13:33;26.35;;;26.25;;
24787;SDS011;12883;52.662;5.196;2023-05-07T13:15:59;25.25;;;25.15;;
24787;SDS011;12883;52.662;5.196;2023-05-07T13:18:25;24.70;;;24.60;;
24787;SDS011;12883;52.662;5.196;2023-05-07T13:20:51;25.05;;;24.95;;
24787;SDS011;12883;52.662;5.196;2023-05-07T13:23:17;27.95;;;27.85;;
24787;SDS011;12883;52.662;5.196;2023-05-07T13:25:42;25.63;;;25.52;;
24787;SDS011;12883;52.662;5.196;2023-05-07T13:28:08;27.10;;;27.00;;
24787;SDS011;12883;52.662;5.196;2023-05-07T13:30:33;27.67;;;27.58;;
24787;SDS011;12883;52.662;5.196;2023-05-07T13:32:59;26.75;;;26.65;;
24787;SDS011;12883;52.662;5.196;2023-05-07T13:35:25;26.98;;;26.88;;
24787;SDS011;12883;52.662;5.196;2023-05-07T13:37:50;27.00;;;26.90;;
24787;SDS011;12883;52.662;5.196;2023-05-07T13:40:17;25.98;;;25.88;;
24787;SDS011;12883;52.662;5.196;2023-05-07T13:42:43;26.77;;;26.67;;
24787;SDS011;12883;52.662;5.196;2023-05-07T13:45:08;27.08;;;26.98;;
24787;SDS011;12883;52.662;5.196;2023-05-07T13:47:34;28.30;;;28.20;;
24787;SDS011;12883;52.662;5.196;2023-05-07T13:49:59;26.88;;;26.77;;
24787;SDS011;12883;52.662;5.196;2023-05-07T13:52:25;26.13;;;26.02;;
24787;SDS011;12883;52.662;5.196;2023-05-07T13:54:50;27.08;;;26.98;;
24787;SDS011;12883;52.662;5.196;2023-05-07T13:57:17;24.27;;;24.17;;
24787;SDS011;12883;52.662;5.196;2023-05-07T13:59:42;26.08;;;25.98;;
24787;SDS011;12883;52.662;5.196;2023-05-07T14:02:08;25.60;;;25.50;;
24787;SDS011;12883;52.662;5.196;2023-05-07T14:04:34;25.27;;;25.17;;
24787;SDS011;12883;52.662;5.196;2023-05-07T14:06:59;23.45;;;23.35;;
24787;SDS011;12883;52.662;5.196;2023-05-07T14:09:25;25.77;;;25.67;;
24787;SDS011;12883;52.662;5.196;2023-05-07T14:11:50;24.27;;;24.17;;
24787;SDS011;12883;52.662;5.196;2023-05-07T14:14:17;23.52;;;23.42;;
24787;SDS011;12883;52.662;5.196;2023-05-07T14:16:43;23.52;;;23.42;;
24787;SDS011;12883;52.662;5.196;2023-05-07T14:19:09;24.23;;;24.13;;
24787;SDS011;12883;52.662;5.196;2023-05-07T14:21:35;23.95;;;23.85;;
24787;SDS011;12883;52.662;5.196;2023-05-07T14:24:00;23.80;;;23.70;;
24787;SDS011;12883;52.662;5.196;2023-05-07T14:26:25;25.67;;;25.58;;
24787;SDS011;12883;52.662;5.196;2023-05-07T14:28:52;25.75;;;25.65;;
24787;SDS011;12883;52.662;5.196;2023-05-07T14:31:19;25.48;;;25.38;;
24787;SDS011;12883;52.662;5.196;2023-05-07T14:33:45;25.13;;;25.02;;
24787;SDS011;12883;52.662;5.196;2023-05-07T14:36:11;22.98;;;22.88;;
24787;SDS011;12883;52.662;5.196;2023-05-07T14:38:36;23.45;;;23.35;;
24787;SDS011;12883;52.662;5.196;2023-05-07T14:41:01;23.17;;;23.08;;
24787;SDS011;12883;52.662;5.196;2023-05-07T14:43:27;24.08;;;23.98;;
24787;SDS011;12883;52.662;5.196;2023-05-07T14:45:52;24.13;;;24.02;;